createdAt,value
2022-07-26T00:02:04.542Z,100587.59
2022-07-26T00:04:32.672Z,100580.31
2022-07-26T00:07:00.512Z,100577.00
2022-07-26T00:09:29.461Z,100578.66
2022-07-26T00:11:57.118Z,100576.34
2022-07-26T00:14:25.243Z,100582.31
2022-07-26T00:16:53.081Z,100590.78
2022-07-26T00:19:21.033Z,100576.38
2022-07-26T00:22:08.939Z,100581.16
2022-07-26T00:24:37.114Z,100586.19
2022-07-26T00:27:04.965Z,100574.53
2022-07-26T00:29:32.770Z,100569.63
2022-07-26T00:32:00.387Z,100571.66
2022-07-26T00:34:27.960Z,100573.19
2022-07-26T00:36:56.063Z,100571.78
2022-07-26T00:39:24.678Z,100571.78
2022-07-26T00:41:52.260Z,100574.22
2022-07-26T00:44:19.817Z,100573.38
2022-07-26T00:46:47.633Z,100571.38
2022-07-26T00:49:15.382Z,100572.75
2022-07-26T00:51:45.668Z,100556.44
2022-07-26T00:54:17.129Z,100564.66
2022-07-26T00:56:44.764Z,100562.91
2022-07-26T00:59:13.112Z,100562.59
2022-07-26T01:01:40.840Z,100568.81
2022-07-26T01:04:08.857Z,100561.81
2022-07-26T01:06:38.496Z,100568.75
2022-07-26T01:09:05.930Z,100562.59
2022-07-26T01:11:34.355Z,100562.28
2022-07-26T01:14:02.029Z,100557.31
2022-07-26T01:16:29.854Z,100564.84
2022-07-26T01:18:58.379Z,100560.38
2022-07-26T01:21:33.324Z,100559.13
2022-07-26T01:24:00.993Z,100558.19
2022-07-26T01:26:28.639Z,100557.72
2022-07-26T01:28:56.731Z,100556.03
2022-07-26T01:31:24.493Z,100555.75
2022-07-26T01:33:52.197Z,100555.00
2022-07-26T01:36:19.992Z,100558.00
2022-07-26T01:38:47.786Z,100554.41
2022-07-26T01:41:15.328Z,100559.78
2022-07-26T01:43:43.646Z,100558.78
2022-07-26T01:46:11.372Z,100545.22
2022-07-26T01:48:39.362Z,100550.25
2022-07-26T01:51:07.080Z,100553.91
2022-07-26T01:53:34.768Z,100546.44
2022-07-26T01:56:02.246Z,100552.28
2022-07-26T01:58:29.955Z,100548.22
2022-07-26T02:00:57.457Z,100544.91
2022-07-26T02:03:24.933Z,100549.63
2022-07-26T02:05:52.307Z,100551.81
2022-07-26T02:08:19.924Z,100562.97
2022-07-26T02:11:03.639Z,100561.03
2022-07-26T02:13:34.403Z,100563.31
2022-07-26T02:16:04.137Z,100564.78
2022-07-26T02:18:31.841Z,100564.88
2022-07-26T02:21:01.537Z,100561.41
2022-07-26T02:23:29.485Z,100556.19
2022-07-26T02:25:57.206Z,100563.81
2022-07-26T02:28:24.748Z,100566.63
2022-07-26T02:30:52.414Z,100572.53
2022-07-26T02:33:21.328Z,100560.09
2022-07-26T02:35:48.979Z,100564.38
2022-07-26T02:38:16.889Z,100562.72
2022-07-26T02:40:44.651Z,100561.91
2022-07-26T02:43:12.187Z,100563.56
2022-07-26T02:45:39.851Z,100567.53
2022-07-26T02:48:07.604Z,100563.16
2022-07-26T02:50:35.569Z,100559.91
2022-07-26T02:53:03.476Z,100556.94
2022-07-26T02:55:31.322Z,100570.03
2022-07-26T02:57:58.973Z,100558.66
2022-07-26T03:00:27.075Z,100565.53
2022-07-26T03:02:54.904Z,100561.06
2022-07-26T03:05:22.679Z,100568.09
2022-07-26T03:07:50.569Z,100566.53
2022-07-26T03:10:18.220Z,100580.75
2022-07-26T03:12:46.742Z,100581.25
2022-07-26T03:15:14.684Z,100582.44
2022-07-26T03:17:42.169Z,100577.78
2022-07-26T03:20:10.505Z,100588.25
2022-07-26T03:22:37.953Z,100587.50
2022-07-26T03:25:05.752Z,100585.38
2022-07-26T03:27:34.058Z,100583.84
2022-07-26T03:30:01.605Z,100585.59
2022-07-26T03:32:29.265Z,100580.41
2022-07-26T03:34:56.626Z,100584.91
2022-07-26T03:37:24.394Z,100578.63
2022-07-26T03:39:51.816Z,100579.69
2022-07-26T03:42:19.369Z,100580.44
2022-07-26T03:44:46.787Z,100587.06
2022-07-26T03:47:14.311Z,100586.22
2022-07-26T03:49:41.744Z,100587.38
2022-07-26T03:52:11.028Z,100587.91
2022-07-26T03:54:38.592Z,100590.66
2022-07-26T03:57:06.069Z,100595.91
2022-07-26T03:59:33.630Z,100597.69
2022-07-26T04:02:01.181Z,100592.47
2022-07-26T04:04:28.848Z,100599.91
2022-07-26T04:06:56.938Z,100591.16
2022-07-26T10:33:01.935Z,100484.16
2022-07-26T10:35:42.541Z,100499.97
2022-07-26T10:38:12.212Z,100518.81
2022-07-26T10:40:56.379Z,100529.25
2022-07-26T10:43:41.560Z,100511.22
2022-07-26T10:46:19.085Z,100506.34
2022-07-26T10:49:00.368Z,100503.06
2022-07-26T10:51:49.334Z,100496.69
2022-07-26T10:54:18.169Z,100492.78
2022-07-26T10:56:45.675Z,100496.47
2022-07-26T10:59:54.410Z,100491.50
2022-07-26T11:02:21.414Z,100486.53
2022-07-26T11:05:01.159Z,100485.25
2022-07-26T11:07:30.266Z,100490.56
2022-07-26T11:10:01.671Z,100488.06
2022-07-26T11:12:29.172Z,100484.13
2022-07-26T11:14:56.786Z,100486.91
2022-07-26T11:17:27.787Z,100480.38
2022-07-26T11:19:56.193Z,100478.78
2022-07-26T11:22:36.225Z,100489.00
2022-07-26T11:25:05.218Z,100486.56
2022-07-26T11:27:32.774Z,100487.66
2022-07-26T11:30:05.573Z,100488.75
2022-07-26T11:32:33.114Z,100486.00
2022-07-26T11:35:02.332Z,100498.09
2022-07-26T11:37:31.094Z,100492.91
2022-07-26T11:39:58.773Z,100497.00
2022-07-26T11:42:26.358Z,100506.06
2022-07-26T11:44:54.220Z,100518.69
2022-07-26T11:47:25.353Z,100520.09
2022-07-26T11:52:43.212Z,100519.53
2022-07-26T11:55:10.671Z,100525.56
2022-07-26T11:57:38.669Z,100536.56
2022-07-26T12:00:07.129Z,100536.56
2022-07-26T12:02:34.925Z,100542.03
2022-07-26T12:05:20.813Z,100545.06
2022-07-26T12:07:55.159Z,100561.84
2022-07-26T12:10:23.376Z,100564.56
2022-07-26T12:13:13.773Z,100560.75
2022-07-26T12:15:53.821Z,100549.22
2022-07-26T12:18:30.201Z,100542.31
2022-07-26T12:21:04.097Z,100533.25
2022-07-26T12:23:48.530Z,100517.88
2022-07-26T12:26:27.981Z,100517.06
2022-07-26T12:28:56.929Z,100528.59
2022-07-26T12:31:33.010Z,100550.84
2022-07-26T12:34:00.980Z,100556.06
2022-07-26T12:36:29.984Z,100553.88
2022-07-26T12:38:59.588Z,100559.66
2022-07-26T12:41:40.302Z,100560.22
2022-07-26T12:44:12.234Z,100564.06
2022-07-26T12:46:40.842Z,100572.84
2022-07-26T12:49:10.970Z,100580.50
2022-07-26T12:51:39.072Z,100581.88
2022-07-26T12:54:06.746Z,100578.31
2022-07-26T12:56:35.345Z,100571.69
2022-07-26T12:59:02.958Z,100563.88
2022-07-26T13:01:32.078Z,100568.13
2022-07-26T13:04:00.129Z,100581.28
2022-07-26T13:06:27.883Z,100590.81
2022-07-26T13:08:56.685Z,100589.31
2022-07-26T13:11:25.161Z,100576.84
2022-07-26T13:13:52.721Z,100576.78
2022-07-26T13:16:20.292Z,100572.22
2022-07-26T13:18:49.116Z,100568.63
2022-07-26T13:21:17.190Z,100572.72
2022-07-26T13:23:44.758Z,100577.22
2022-07-26T13:26:12.282Z,100580.81
2022-07-26T13:28:40.784Z,100585.50
2022-07-26T13:31:08.637Z,100596.88
2022-07-26T13:33:39.491Z,100601.44
2022-07-26T13:36:07.042Z,100609.38
2022-07-26T13:41:02.530Z,100622.09
2022-07-26T13:43:35.402Z,100626.72
2022-07-26T13:46:04.005Z,100626.50
2022-07-26T13:48:31.600Z,100628.16
2022-07-26T13:50:59.247Z,100614.56
2022-07-26T13:53:27.801Z,100601.50
2022-07-26T13:55:55.268Z,100591.50
2022-07-26T13:58:23.643Z,100581.97
2022-07-26T14:00:51.193Z,100574.34
2022-07-26T14:03:20.067Z,100560.59
2022-07-26T14:05:47.550Z,100558.16
2022-07-26T14:08:15.564Z,100552.03
2022-07-26T14:10:46.552Z,100545.38
2022-07-26T14:13:15.345Z,100550.53
2022-07-26T14:15:42.726Z,100562.41
2022-07-26T14:18:10.211Z,100563.91
2022-07-26T14:20:39.505Z,100545.72
2022-07-26T14:23:07.286Z,100533.41
2022-07-26T14:25:35.267Z,100533.00
2022-07-26T14:28:02.835Z,100538.72
2022-07-26T14:30:30.408Z,100535.75
2022-07-26T14:32:58.038Z,100533.94
2022-07-26T14:35:29.409Z,100549.38
2022-07-26T14:37:56.848Z,100538.50
2022-07-26T14:40:24.699Z,100538.84
2022-07-26T14:42:52.214Z,100541.63
2022-07-26T14:45:19.810Z,100547.13
2022-07-26T14:47:47.374Z,100547.72
2022-07-26T14:50:15.424Z,100547.97
2022-07-26T14:52:46.277Z,100544.13
2022-07-26T14:55:15.394Z,100531.25
2022-07-26T14:57:43.406Z,100527.38
2022-07-26T15:00:14.720Z,100515.00
2022-07-26T15:02:45.398Z,100507.81
2022-07-26T15:05:15.408Z,100500.13
2022-07-26T15:07:43.587Z,100502.91
2022-07-26T15:10:13.628Z,100501.28
2022-07-26T15:12:44.820Z,100509.25
2022-07-26T15:15:12.511Z,100512.56
2022-07-26T15:17:46.355Z,100505.41
2022-07-26T15:20:24.313Z,100493.59
2022-07-26T15:22:54.143Z,100498.56
2022-07-26T15:25:24.128Z,100492.28
2022-07-26T15:27:51.778Z,100498.84
2022-07-26T15:30:22.255Z,100496.91
2022-07-26T15:32:56.262Z,100495.56
2022-07-26T15:35:23.701Z,100494.75
2022-07-26T15:37:51.745Z,100490.88
2022-07-26T15:40:20.968Z,100501.88
2022-07-26T15:42:50.634Z,100506.81
2022-07-26T15:45:18.593Z,100500.19
2022-07-26T15:48:01.087Z,100506.25
2022-07-26T15:50:35.114Z,100505.97
2022-07-26T15:53:02.650Z,100501.88
2022-07-26T15:55:30.364Z,100504.06
2022-07-26T15:57:57.893Z,100505.97
2022-07-26T16:00:25.469Z,100504.06
2022-07-26T16:02:53.372Z,100510.69
2022-07-26T16:05:23.173Z,100510.13
2022-07-26T16:07:50.813Z,100512.84
2022-07-26T16:10:18.313Z,100516.66
2022-07-26T16:12:46.273Z,100520.44
2022-07-26T16:15:19.424Z,100527.06
2022-07-26T16:17:47.495Z,100533.13
2022-07-26T16:20:16.487Z,100529.28
2022-07-26T16:22:44.222Z,100527.09
2022-07-26T16:25:16.143Z,100536.97
2022-07-26T16:27:44.115Z,100535.31
2022-07-26T16:30:13.175Z,100546.56
2022-07-26T16:32:42.749Z,100548.53
2022-07-26T16:35:10.885Z,100546.34
2022-07-26T16:37:38.935Z,100542.50
2022-07-26T16:40:07.656Z,100541.13
2022-07-26T16:42:35.490Z,100554.53
2022-07-26T16:45:03.124Z,100552.88
2022-07-26T16:47:30.998Z,100551.50
2022-07-26T16:49:58.631Z,100551.25
2022-07-26T16:52:26.052Z,100552.31
2022-07-26T16:54:53.782Z,100558.91
2022-07-26T16:57:21.240Z,100552.28
2022-07-26T16:59:48.769Z,100553.34
2022-07-26T17:02:16.808Z,100555.03
2022-07-26T17:04:44.529Z,100556.63
2022-07-26T17:07:25.067Z,100557.97
2022-07-26T17:09:53.115Z,100557.13
2022-07-26T17:12:21.641Z,100559.84
2022-07-26T17:14:50.232Z,100564.78
2022-07-26T17:17:17.723Z,100556.97
2022-07-26T17:19:45.639Z,100564.72
2022-07-26T17:22:13.680Z,100564.50
2022-07-26T17:24:41.301Z,100571.78
2022-07-26T17:27:08.994Z,100572.16
2022-07-26T17:29:36.732Z,100569.03
2022-07-26T17:32:04.703Z,100565.72
2022-07-26T17:34:33.629Z,100564.91
2022-07-26T17:37:05.723Z,100562.41
2022-07-26T17:39:51.784Z,100562.63
2022-07-26T17:42:25.323Z,100564.84
2022-07-26T17:44:52.936Z,100576.75
2022-07-26T17:47:29.404Z,100583.56
2022-07-26T17:50:34.126Z,100587.56
2022-07-26T17:52:51.027Z,100599.81
2022-07-26T17:55:19.838Z,100608.38
2022-07-26T17:57:50.381Z,100609.41
2022-07-26T18:00:20.546Z,100610.56
2022-07-26T18:02:48.707Z,100607.25
2022-07-26T18:05:16.880Z,100612.13
2022-07-26T18:07:44.376Z,100612.13
2022-07-26T18:10:14.576Z,100615.72
2022-07-26T18:12:42.502Z,100619.03
2022-07-26T18:15:10.834Z,100613.88
2022-07-26T18:17:43.888Z,100622.03
2022-07-26T18:20:12.307Z,100618.41
2022-07-26T18:22:40.260Z,100625.78
2022-07-26T18:25:08.236Z,100627.44
2022-07-26T18:27:35.641Z,100624.84
2022-07-26T18:30:05.016Z,100620.59
2022-07-26T18:32:34.274Z,100622.28
2022-07-26T18:35:01.775Z,100618.28
2022-07-26T18:37:29.469Z,100606.03
2022-07-26T18:39:58.036Z,100611.25
2022-07-26T18:42:26.670Z,100603.97
2022-07-26T18:44:54.378Z,100601.47
2022-07-26T18:47:22.249Z,100605.72
2022-07-26T18:49:50.121Z,100599.63
2022-07-26T18:52:31.904Z,100604.28
2022-07-26T18:55:07.305Z,100611.31
2022-07-26T18:57:36.884Z,100606.28
2022-07-26T19:00:06.993Z,100602.88
2022-07-26T19:02:34.596Z,100598.97
2022-07-26T19:05:02.377Z,100596.19
2022-07-26T19:07:31.890Z,100601.31
2022-07-26T19:10:00.297Z,100598.91
2022-07-26T19:12:28.552Z,100588.47
2022-07-26T19:14:56.137Z,100593.84
2022-07-26T19:17:24.975Z,100586.97
2022-07-26T19:19:53.085Z,100584.91
2022-07-26T19:22:21.802Z,100586.38
2022-07-26T19:24:49.221Z,100590.84
2022-07-26T19:27:16.694Z,100595.84
2022-07-26T19:29:44.949Z,100593.66
2022-07-26T19:32:12.916Z,100590.94
2022-07-26T19:34:40.688Z,100594.78
2022-07-26T19:37:10.858Z,100596.00
2022-07-26T19:39:40.005Z,100598.50
2022-07-26T19:42:07.456Z,100597.06
2022-07-26T19:44:36.277Z,100596.75
2022-07-26T19:47:04.002Z,100595.84
2022-07-26T19:49:32.202Z,100597.44
2022-07-26T19:51:59.968Z,100595.41
2022-07-26T19:54:28.423Z,100596.34
2022-07-26T19:56:55.910Z,100602.91
2022-07-26T19:59:24.412Z,100595.13
2022-07-26T20:01:55.324Z,100596.66
2022-07-26T20:04:25.833Z,100604.09
2022-07-26T20:06:55.048Z,100602.16
2022-07-26T20:09:22.547Z,100612.25
2022-07-26T20:11:51.227Z,100623.81
2022-07-26T20:14:19.921Z,100623.50
2022-07-26T20:16:50.532Z,100631.94
2022-07-26T20:19:23.515Z,100627.47
2022-07-26T20:21:51.585Z,100627.31
2022-07-26T20:24:19.180Z,100633.13
2022-07-26T20:26:46.901Z,100633.75
2022-07-26T20:29:14.896Z,100630.44
2022-07-26T20:31:43.150Z,100632.34
2022-07-26T20:34:10.613Z,100636.56
2022-07-26T20:36:38.334Z,100641.84
2022-07-26T20:39:06.056Z,100648.84
2022-07-26T20:41:34.952Z,100649.25
2022-07-26T20:44:02.477Z,100656.84
2022-07-26T20:46:32.080Z,100657.03
2022-07-26T20:49:00.044Z,100664.84
2022-07-26T20:51:27.542Z,100670.94
2022-07-26T20:53:54.936Z,100666.94
2022-07-26T20:56:22.623Z,100675.13
2022-07-26T20:58:50.389Z,100673.53
2022-07-26T21:01:17.958Z,100670.44
2022-07-26T21:03:47.483Z,100660.94
2022-07-26T21:06:15.344Z,100665.28
2022-07-26T21:08:44.360Z,100666.75
2022-07-26T21:11:11.897Z,100657.94
2022-07-26T21:13:53.090Z,100659.53
2022-07-26T21:16:21.218Z,100659.09
2022-07-26T21:18:53.031Z,100654.13
2022-07-26T21:21:22.525Z,100665.34
2022-07-26T21:23:50.163Z,100655.72
2022-07-26T21:26:17.576Z,100651.69
2022-07-26T21:28:45.237Z,100654.41
2022-07-26T21:31:12.808Z,100646.63
2022-07-26T21:33:40.310Z,100651.41
2022-07-26T21:36:08.039Z,100647.34
2022-07-26T21:38:35.545Z,100658.19
2022-07-26T21:41:03.034Z,100662.00
2022-07-26T21:43:30.581Z,100664.06
2022-07-26T21:45:58.128Z,100662.00
2022-07-26T21:48:26.993Z,100672.00
2022-07-26T21:50:54.561Z,100667.91
2022-07-26T21:53:22.021Z,100668.22
2022-07-26T21:55:49.760Z,100660.66
2022-07-26T21:58:17.282Z,100666.56
2022-07-26T22:00:44.976Z,100655.50
2022-07-26T22:03:13.640Z,100664.06
2022-07-26T22:05:44.129Z,100667.28
2022-07-26T22:08:13.856Z,100657.69
2022-07-26T22:10:44.926Z,100664.47
2022-07-26T22:13:14.216Z,100666.31
2022-07-26T22:15:42.974Z,100668.19
2022-07-26T22:18:10.827Z,100664.69
2022-07-26T22:20:39.493Z,100663.22
2022-07-26T22:23:09.463Z,100661.41
2022-07-26T22:25:38.300Z,100659.91
2022-07-26T22:28:08.500Z,100665.47
2022-07-26T22:30:36.522Z,100655.13
2022-07-26T22:33:07.955Z,100656.75
2022-07-26T22:35:36.458Z,100664.97
2022-07-26T22:38:11.048Z,100667.53
2022-07-26T22:40:41.264Z,100665.72
2022-07-26T22:43:09.614Z,100657.28
2022-07-26T22:45:37.943Z,100654.66
2022-07-26T22:48:05.979Z,100658.41
2022-07-26T22:50:34.056Z,100656.41
2022-07-26T22:53:02.005Z,100659.06
2022-07-26T22:55:30.253Z,100658.66
2022-07-26T22:57:58.048Z,100658.06
2022-07-26T23:00:25.826Z,100657.16
2022-07-26T23:02:53.298Z,100658.16
2022-07-26T23:05:20.782Z,100659.47
2022-07-26T23:07:49.110Z,100652.59
2022-07-26T23:10:17.863Z,100645.47
2022-07-26T23:12:58.079Z,100637.50
2022-07-26T23:15:29.118Z,100642.50
2022-07-26T23:17:57.128Z,100636.22
2022-07-26T23:20:25.309Z,100638.56
2022-07-26T23:22:52.905Z,100636.47
2022-07-26T23:25:22.118Z,100638.56
2022-07-26T23:27:49.577Z,100643.59
2022-07-26T23:30:17.067Z,100636.72
2022-07-26T23:32:44.475Z,100631.09
2022-07-26T23:35:13.022Z,100633.56
2022-07-26T23:37:40.693Z,100637.94
2022-07-26T23:40:09.014Z,100647.38
2022-07-26T23:42:39.639Z,100651.25
2022-07-26T23:45:08.367Z,100658.41
2022-07-26T23:47:35.870Z,100655.53
2022-07-26T23:50:03.693Z,100657.13
2022-07-26T23:52:31.622Z,100657.28
2022-07-26T23:54:59.017Z,100655.97
2022-07-26T23:57:26.663Z,100655.44
2022-07-26T23:59:54.342Z,100641.59
